Data for 09/10/2015

Time Sea-Level Adjusted Pressure Absolute Pressure Temperature Relative Humidity Dew Point   
(mb) (inHg) (mb) (inHg) (C) (F) (%) (C) (F)
00:05 1021 30.15 851 25.13 15.4 59.8 38 1.2 34.2
00:10 1021 30.15 851 25.13 15.5 59.8 38 1.2 34.2
00:15 1021 30.15 851 25.13 15.6 60.1 36 0.9 33.6
00:20 1021 30.15 851 25.13 15.8 60.5 35 0.7 33.2
00:25 1021 30.15 851 25.13 15.9 60.5 35 0.6 33.2
00:30 1021 30.15 851 25.13 15.8 60.5 36 0.8 33.4
00:35 1021 30.15 851 25.13 15.8 60.4 36 0.8 33.4
00:40 1021 30.15 851 25.13 15.7 60.2 36 0.9 33.6
00:45 1021 30.15 851 25.13 15.7 60.2 36 0.7 33.2
00:50 1021 30.15 851 25.13 15.7 60.3 36 0.9 33.6
00:55 1021 30.15 851 25.13 15.5 59.9 41 2.3 36.2
01:00 1021 30.15 851 25.13 15.5 59.8 39 1.7 35.1
01:05 1021 30.15 850 25.1 15.5 59.8 37 1 33.8
01:10 1021 30.15 850 25.1 15.3 59.5 38 1.2 34.2
01:15 1021 30.15 850 25.1 15.2 59.3 36 0.2 32.3
01:20 1021 30.15 850 25.1 15.4 59.8 37 1 33.9
01:25 1021 30.15 850 25.1 15.3 59.6 36 0.6 33.1
01:30 1021 30.15 850 25.1 15.2 59.4 37 0.7 33.2
01:35 1021 30.15 850 25.1 15.2 59.3 37 0.8 33.5
01:40 1021 30.15 850 25.1 14.9 58.8 38 0.9 33.6
01:45 1021 30.15 850 25.1 14.7 58.4 39 1 33.8
01:50 1021 30.15 850 25.1 14.5 58.1 40 1.1 33.9
01:55 1021 30.15 850 25.1 14.5 58.1 38 0.5 33
02:00 1021 30.15 850 25.1 14.6 58.2 39 0.7 33.3
02:05 1021 30.15 850 25.1 14.5 58.1 39 0.7 33.3
02:10 1021 30.15 850 25.1 14.4 58 39 0.8 33.4
02:15 1021 30.15 850 25.1 14.3 57.7 39 0.8 33.4
02:20 1021 30.15 850 25.1 14.1 57.3 40 0.8 33.5
02:25 1021 30.15 850 25.1 13.9 57.1 40 0.8 33.4
02:30 1021 30.15 850 25.1 13.8 56.9 41 0.8 33.5
02:35 1021 30.15 850 25.1 13.7 56.7 41 0.9 33.6
02:40 1021 30.15 850 25.1 13.4 56.2 41 0.6 33.1
02:45 1021 30.15 850 25.1 13.4 56 42 0.6 33.2
02:50 1021 30.15 850 25.1 13.3 56 41 0.5 33
02:55 1021 30.15 850 25.1 13.2 55.8 42 0.7 33.3
03:00 1021 30.15 850 25.1 13.1 55.5 42 0.4 32.8
03:05 1021 30.15 850 25.1 13.2 55.7 42 0.6 33.1
03:10 1021 30.15 850 25.1 13.1 55.5 43 0.7 33.3
03:15 1021 30.15 850 25.1 13 55.3 42 0.4 32.8
03:20 1021 30.15 850 25.1 13.1 55.5 42 0.5 32.9
03:25 1021 30.15 850 25.1 13 55.3 42 0.6 33
03:30 1021 30.15 850 25.1 12.9 55.2 42 0.4 32.7
03:35 1021 30.15 850 25.1 13 55.3 41 0.2 32.4
03:40 1021 30.15 850 25.1 13.1 55.6 41 0.3 32.5
03:45 1021 30.15 851 25.13 13.2 55.7 41 0.4 32.7
03:50 1021 30.15 851 25.13 13.2 55.7 41 0.4 32.7
03:55 1021 30.15 851 25.13 13.1 55.5 43 0.7 33.3
04:00 1021 30.15 851 25.13 12.8 55 43 0.7 33.3
04:05 1021 30.15 851 25.13 12.5 54.5 47 1.5 34.7
04:10 1021 30.15 851 25.13 11.9 53.3 49 1.5 34.7
04:15 1021 30.15 851 25.13 11.3 52.3 50 1.3 34.4
04:20 1021 30.15 851 25.13 11.3 52.4 49 1.1 33.9
04:25 1021 30.15 851 25.13 11.4 52.5 50 1.5 34.7
04:30 1022 30.18 851 25.13 11.1 52 51 1.5 34.7
04:35 1022 30.18 851 25.13 10.9 51.6 51 1.3 34.3
04:40 1022 30.18 851 25.13 10.9 51.7 51 1.2 34.2
04:45 1022 30.18 851 25.13 10.9 51.6 50 1 33.9
04:50 1022 30.18 851 25.13 11 51.8 51 1.4 34.4
04:55 1022 30.18 851 25.13 10.5 50.9 56 2.2 35.9
05:00 1022 30.18 851 25.13 9.4 48.8 59 1.8 35.2
05:05 1022 30.18 851 25.13 9.3 48.8 56 1.1 33.9
05:10 1022 30.18 851 25.13 9.7 49.4 53 0.6 33.2
05:15 1022 30.18 851 25.13 10.1 50.3 51 0.6 33
05:20 1022 30.18 851 25.13 10.4 50.7 51 0.6 33.2
05:25 1022 30.18 851 25.13 10.6 51 51 0.9 33.7
05:30 1022 30.18 851 25.13 10.5 50.9 49 0.4 32.7
05:35 1022 30.18 851 25.13 10.8 51.5 49 0.6 33.1
05:40 1022 30.18 851 25.13 10.8 51.4 48 0.2 32.4
05:45 1022 30.18 851 25.13 11.1 52 48 0.5 32.9
05:50 1022 30.18 851 25.13 10.8 51.4 48 0.4 32.7
05:55 1022 30.18 851 25.13 10.6 51 49 0.5 32.8
06:00 1022 30.18 852 25.16 10.4 50.8 51 0.7 33.3
06:05 1022 30.18 852 25.16 10.4 50.7 51 0.7 33.2
06:10 1022 30.18 852 25.16 10.4 50.7 50 0.4 32.7
06:15 1023 30.21 852 25.16 10.7 51.3 49 0.4 32.8
06:20 1023 30.21 852 25.16 10.7 51.2 50 0.7 33.3
06:25 1023 30.21 852 25.16 10.5 50.9 50 0.4 32.8
06:30 1023 30.21 852 25.16 10.6 51 50 0.6 33.1
06:35 1023 30.21 852 25.16 10.5 50.9 50 0.6 33
06:40 1023 30.21 852 25.16 10.6 51.1 49 0.5 32.9
06:45 1023 30.21 852 25.16 10.8 51.4 49 0.4 32.8
06:50 1023 30.21 852 25.16 11.1 52 49 0.8 33.4
06:55 1023 30.21 852 25.16 11.3 52.3 49 1 33.9
07:00 1023 30.21 852 25.16 11.2 52.2 48 0.6 33.1
07:05 1023 30.21 852 25.16 11.9 53.5 46 0.6 33
07:10 1023 30.21 852 25.16 12.8 55 43 0.7 33.2
07:15 1023 30.21 852 25.16 13.3 55.9 43 1 33.8
07:20 1023 30.21 852 25.16 13 55.4 46 1.9 35.4
07:25 1023 30.21 853 25.19 13.2 55.8 44 1.4 34.6
07:30 1023 30.21 853 25.19 13.6 56.4 44 1.5 34.7
07:35 1023 30.21 853 25.19 13.9 57 41 1 33.8
07:40 1023 30.21 853 25.19 14.3 57.7 40 1.1 34
07:45 1024 30.24 853 25.19 14.9 58.7 40 1.5 34.7
07:50 1024 30.24 853 25.19 15.1 59.1 37 0.5 32.9
07:55 1024 30.24 853 25.19 14.9 58.8 39 1.3 34.3
08:00 1024 30.24 853 25.19 15.2 59.3 39 1.2 34.2
08:05 1024 30.24 853 25.19 15.7 60.2 39 1.8 35.3
08:10 1024 30.24 853 25.19 16.1 61 36 1.1 33.9
08:15 1024 30.24 853 25.19 16.8 62.2 36 1.6 34.9
08:20 1024 30.24 853 25.19 16.8 62.3 35 1.5 34.7
08:25 1024 30.24 853 25.19 17 62.5 35 1.4 34.5
08:30 1024 30.24 853 25.19 17 62.5 35 1.7 35.1
08:35 1024 30.24 853 25.19 17 62.5 34 1.1 33.9
08:40 1024 30.24 853 25.19 17.6 63.6 33 1.4 34.6
08:45 1024 30.24 853 25.19 17.8 64.1 33 1.4 34.6
08:50 1024 30.24 853 25.19 18.1 64.5 33 1.8 35.3
08:55 1024 30.24 853 25.19 19 66.2 30 1.1 34
09:00 1024 30.24 853 25.19 19.4 67 28 0.6 33
09:05 1024 30.24 853 25.19 19.3 66.7 29 1.2 34.1
09:10 1024 30.24 853 25.19 19.2 66.5 29 0.8 33.4
09:15 1024 30.24 853 25.19 19.8 67.6 29 1.2 34.1
09:20 1024 30.24 853 25.19 20.3 68.5 28 1.4 34.5
09:25 1024 30.24 853 25.19 20.5 68.8 27 1.2 34.1
09:30 1024 30.24 853 25.19 20.1 68.1 28 1.2 34.1
09:35 1024 30.24 853 25.19 20.1 68.2 29 1.5 34.7
09:40 1024 30.24 853 25.19 20.3 68.5 29 1.6 34.9
09:45 1024 30.24 853 25.19 20.4 68.6 29 1.8 35.2
09:50 1024 30.24 853 25.19 20.4 68.8 29 1.8 35.3
09:55 1024 30.24 853 25.19 20.9 69.5 26 1 33.8
10:00 1024 30.24 853 25.19 20.8 69.5 28 1.6 34.9
10:05 1024 30.24 853 25.19 20.9 69.6 26 0.9 33.7
10:10 1024 30.24 853 25.19 21.2 70.1 26 1.2 34.1
10:15 1024 30.24 853 25.19 21.3 70.3 25 0.8 33.5
10:20 1024 30.24 853 25.19 21.6 70.9 24 0.4 32.7
10:25 1024 30.24 853 25.19 21.7 71.1 24 0.3 32.6
10:30 1024 30.24 853 25.19 21.2 70.2 24 0.2 32.3
10:35 1024 30.24 853 25.19 21 69.8 26 0.8 33.4
10:40 1024 30.24 853 25.19 21.4 70.5 24 0.1 32.2
10:45 1024 30.24 853 25.19 21.6 70.9 24 0.3 32.5
10:50 1024 30.24 853 25.19 21.7 71.1 24 0.4 32.8
10:55 1024 30.24 853 25.19 21.7 71.1 24 0.6 33.2
11:00 1024 30.24 853 25.19 21.9 71.3 24 0.5 32.9
11:05 1024 30.24 853 25.19 22.1 71.8 22 -0.3 31.5
11:10 1024 30.24 853 25.19 22.4 72.2 23 0.2 32.4
11:15 1024 30.24 853 25.19 22.5 72.4 23 0.3 32.5
11:20 1024 30.24 853 25.19 22.7 72.9 23 0.5 32.9
11:25 1024 30.24 853 25.19 22.5 72.6 23 0.4 32.7
11:30 1024 30.24 853 25.19 22.4 72.4 22 0 32
11:35 1024 30.24 853 25.19 22.3 72.2 22 -0.1 31.8
11:40 1024 30.24 853 25.19 22.1 71.8 23 0.1 32.2
11:45 1024 30.24 853 25.19 22.3 72.2 22 -0.3 31.4
11:50 1024 30.24 853 25.19 22.6 72.6 22 -0.3 31.5
11:55 1024 30.24 853 25.19 22.6 72.6 21 -0.4 31.4
12:00 1024 30.24 853 25.19 22.3 72.1 22 -0.3 31.4
12:05 1024 30.24 853 25.19 22.5 72.6 22 0.2 32.4
12:10 1024 30.24 853 25.19 22.9 73.2 22 0.1 32.2
12:15 1024 30.24 853 25.19 23.2 73.8 21 -0.2 31.7
12:20 1024 30.24 853 25.19 23.1 73.5 21 -0.1 31.8
12:25 1024 30.24 853 25.19 23.1 73.5 21 -0 32
12:30 1024 30.24 853 25.19 22 71.6 22 -0.3 31.5
12:35 1024 30.24 853 25.19 23 73.3 20 -0.8 30.6
12:40 1024 30.24 853 25.19 23.5 74.3 20 -0.5 31.2
12:45 1024 30.24 853 25.19 23.3 73.9 22 0.8 33.4
12:50 1024 30.24 853 25.19 23.6 74.4 21 0.2 32.4
12:55 1024 30.24 853 25.19 23.3 74 20 -0.5 31.2
13:00 1024 30.24 853 25.19 23.1 73.6 20 -1 30.1
13:05 1024 30.24 853 25.19 23.3 73.9 21 0 32.1
13:10 1024 30.24 853 25.19 23.2 73.8 20 -0.5 31.2
13:15 1024 30.24 853 25.19 23.2 73.7 20 -0.8 30.6
13:20 1024 30.24 853 25.19 23.1 73.7 19 -1.2 29.8
13:25 1024 30.24 853 25.19 23.2 73.8 21 -0.4 31.3
13:30 1024 30.24 853 25.19 23.2 73.7 19 -1.4 29.5
13:35 1024 30.24 853 25.19 23.8 74.8 19 -0.9 30.4
13:40 1024 30.24 853 25.19 24.4 76 18 -1 30.3
13:45 1024 30.24 853 25.19 24.3 75.7 19 -0.4 31.2
13:50 1024 30.24 853 25.19 24.1 75.3 19 -0.9 30.3
13:55 1024 30.24 853 25.19 23.9 74.9 18 -2 28.4
14:00 1024 30.24 853 25.19 23.8 74.8 19 -1.1 30.1
14:05 1024 30.24 853 25.19 24.1 75.4 18 -1.3 29.6
14:10 1024 30.24 853 25.19 24.2 75.5 18 -1.7 29
14:15 1024 30.24 853 25.19 24.1 75.4 18 -1.8 28.7
14:20 1024 30.24 853 25.19 24.2 75.6 19 -0.8 30.5
14:25 1024 30.24 853 25.19 23.6 74.5 19 -1.4 29.4
14:30 1024 30.24 853 25.19 23.1 73.5 19 -1.5 29.3
14:35 1024 30.24 853 25.19 24 75.2 18 -1.6 29.2
14:40 1023 30.21 853 25.19 24.2 75.6 18 -1.4 29.4
14:45 1024 30.24 853 25.19 24.1 75.4 19 -0.9 30.3
14:50 1024 30.24 853 25.19 24.3 75.7 18 -1.1 30
14:55 1023 30.21 853 25.19 24.4 76 18 -1.4 29.6
15:00 1023 30.21 853 25.19 24 75.1 19 -0.7 30.8
15:05 1023 30.21 853 25.19 23.3 73.9 18 -2 28.4
15:10 1023 30.21 853 25.19 23.8 74.8 19 -1.2 29.8
15:15 1023 30.21 853 25.19 23.8 74.9 19 -1.3 29.6
15:20 1023 30.21 853 25.19 23.4 74.2 18 -1.7 28.9
15:25 1023 30.21 853 25.19 23.7 74.6 19 -1.4 29.5
15:30 1023 30.21 852 25.16 22.7 72.9 20 -1.3 29.6
15:35 1023 30.21 852 25.16 23.6 74.5 19 -1.4 29.4
15:40 1023 30.21 852 25.16 24.3 75.7 18 -1.2 29.9
15:45 1023 30.21 852 25.16 24.3 75.7 18 -1.7 29
15:50 1023 30.21 852 25.16 24.4 75.9 19 -0.6 30.9
15:55 1023 30.21 852 25.16 24.2 75.6 18 -1.2 29.9
16:00 1023 30.21 852 25.16 24.6 76.3 18 -0.7 30.8
16:05 1023 30.21 852 25.16 24.5 76.2 18 -1.2 29.8
16:10 1023 30.21 852 25.16 24.4 75.9 18 -1.3 29.6
16:15 1023 30.21 852 25.16 24.5 76 18 -1 30.2
16:20 1023 30.21 852 25.16 24.4 76 18 -1 30.3
16:25 1023 30.21 852 25.16 24.3 75.7 19 -0.9 30.3
16:30 1023 30.21 852 25.16 23.2 73.7 20 -0.8 30.6
16:35 1023 30.21 852 25.16 23.7 74.7 20 -0.6 30.9
16:40 1023 30.21 852 25.16 24.1 75.4 19 -0.7 30.8
16:45 1023 30.21 852 25.16 23.4 74.1 20 -0.5 31.1
16:50 1023 30.21 852 25.16 23.7 74.6 19 -1.1 30
16:55 1023 30.21 852 25.16 23.6 74.4 19 -1.4 29.4
17:00 1023 30.21 852 25.16 23.8 74.9 19 -1.3 29.7
17:05 1023 30.21 852 25.16 23.6 74.5 19 -0.8 30.5
17:10 1023 30.21 852 25.16 23.6 74.4 20 -0.6 31
17:15 1023 30.21 852 25.16 23.1 73.5 21 -0 32
17:20 1023 30.21 852 25.16 22.9 73.3 21 -0.6 31
17:25 1023 30.21 852 25.16 22.9 73.3 21 -0.6 31
17:30 1023 30.21 852 25.16 22.9 73.2 21 -0.7 30.7
17:35 1023 30.21 852 25.16 22.7 72.8 21 -0.7 30.7
17:40 1023 30.21 852 25.16 22.6 72.7 21 -0.6 31
17:45 1023 30.21 852 25.16 22.6 72.6 21 -0.6 30.9
17:50 1023 30.21 852 25.16 22.4 72.4 22 -0.3 31.4
17:55 1023 30.21 852 25.16 22.4 72.2 22 -0.2 31.6
18:00 1023 30.21 852 25.16 22.3 72.1 21 -0.9 30.4
18:05 1023 30.21 852 25.16 22.1 71.8 22 -0.6 30.9
18:10 1023 30.21 852 25.16 21.9 71.3 23 -0.1 31.8
18:15 1023 30.21 852 25.16 21.7 71 23 0.1 32.2
18:20 1023 30.21 852 25.16 21.7 71 22 -0.5 31
18:25 1023 30.21 852 25.16 21.6 70.9 23 -0.4 31.2
18:30 1023 30.21 852 25.16 21.5 70.7 23 -0.4 31.2
18:35 1023 30.21 852 25.16 21.4 70.5 22 -0.7 30.7
18:40 1023 30.21 852 25.16 21.3 70.4 23 -0.7 30.7
18:45 1023 30.21 852 25.16 21.2 70.2 23 -0.6 31
18:50 1023 30.21 852 25.16 21.1 70 32 3.8 38.9
18:55 1023 30.21 852 25.16 20.4 68.7 32 3.3 37.9
19:00 1023 30.21 853 25.19 19.2 66.6 34 3.1 37.5
19:05 1023 30.21 853 25.19 19 66.2 32 2.3 36.1
19:10 1023 30.21 853 25.19 19 66.2 33 2.5 36.5
19:15 1024 30.24 853 25.19 18.3 64.9 41 4.9 40.8
19:20 1024 30.24 853 25.19 17.2 63 38 2.7 36.9
19:25 1024 30.24 853 25.19 16.8 62.3 39 2.8 37
19:30 1024 30.24 853 25.19 16.5 61.8 36 1.7 35
19:35 1024 30.24 853 25.19 16.6 61.9 36 1.7 35.1
19:40 1024 30.24 853 25.19 16.4 61.4 40 2.8 37
19:45 1024 30.24 853 25.19 15.6 60.1 40 2.2 36
19:50 1024 30.24 853 25.19 15.8 60.4 33 -0.2 31.7
19:55 1024 30.24 853 25.19 16.4 61.6 35 1.2 34.1
20:00 1024 30.24 853 25.19 16.2 61.1 34 0.3 32.6
20:05 1024 30.24 853 25.19 16 60.8 36 1 33.7
20:10 1024 30.24 853 25.19 15.5 59.9 36 0.7 33.3
20:15 1024 30.24 853 25.19 15.2 59.3 37 0.6 33.1
20:20 1024 30.24 853 25.19 15 59 36 -0 32
20:25 1024 30.24 853 25.19 15.3 59.5 35 0.1 32.1
20:30 1024 30.24 853 25.19 15.1 59.1 37 0.7 33.2
20:35 1024 30.24 853 25.19 14.7 58.5 37 0.4 32.7
20:40 1024 30.24 853 25.19 14.8 58.6 37 0.2 32.4
20:45 1024 30.24 854 25.22 15.2 59.4 34 -0.4 31.2
20:50 1024 30.24 854 25.22 16.2 61.1 33 -0.2 31.6
20:55 1024 30.24 854 25.22 16.7 62 32 0.1 32.1
21:00 1024 30.24 854 25.22 16.9 62.5 32 0.3 32.5
21:05 1024 30.24 854 25.22 17 62.6 32 0.5 32.9
21:10 1024 30.24 854 25.22 16.8 62.3 33 0.7 33.2
21:15 1025 30.27 854 25.22 16.7 62 34 0.7 33.3
21:20 1025 30.27 854 25.22 16.7 62 34 0.9 33.5
21:25 1025 30.27 854 25.22 16.7 62.1 34 0.9 33.6
21:30 1025 30.27 854 25.22 16.9 62.4 34 1 33.8
21:35 1025 30.27 854 25.22 16.9 62.5 34 1.1 34
21:40 1025 30.27 854 25.22 17 62.5 35 1.5 34.8
21:45 1025 30.27 854 25.22 17 62.6 35 1.4 34.6
21:50 1025 30.27 854 25.22 17 62.7 34 1.4 34.5
21:55 1025 30.27 854 25.22 17 62.6 35 1.5 34.8
22:00 1025 30.27 854 25.22 17 62.5 35 1.6 34.9
22:05 1025 30.27 854 25.22 16.9 62.4 35 1.4 34.6
22:10 1025 30.27 854 25.22 17 62.5 35 1.7 35.1
22:15 1025 30.27 854 25.22 16.8 62.3 36 1.7 35.1
22:20 1025 30.27 854 25.22 16.7 62.1 36 1.8 35.3
22:25 1025 30.27 854 25.22 16.7 62 36 1.8 35.2
22:30 1025 30.27 854 25.22 16.6 61.8 37 1.9 35.4
22:35 1025 30.27 854 25.22 16.4 61.6 37 1.9 35.4
22:40 1025 30.27 854 25.22 16.3 61.4 37 1.8 35.3
22:45 1025 30.27 854 25.22 16.3 61.3 38 2 35.5
22:50 1025 30.27 854 25.22 16.2 61.2 38 2 35.5
22:55 1025 30.27 854 25.22 16.2 61.1 38 1.9 35.4
23:00 1025 30.27 854 25.22 16.2 61.2 38 1.9 35.4
23:05 1025 30.27 854 25.22 16.2 61.2 38 2 35.6
23:10 1025 30.27 854 25.22 16.3 61.3 38 1.9 35.4
23:15 1025 30.27 854 25.22 16.2 61.2 38 2 35.6
23:20 1025 30.27 854 25.22 16.1 61 38 2 35.7
23:25 1025 30.27 854 25.22 16 60.8 39 2 35.6
23:30 1025 30.27 854 25.22 15.9 60.6 39 2.1 35.7
23:35 1025 30.27 854 25.22 15.9 60.5 39 2 35.6
23:40 1025 30.27 854 25.22 15.8 60.5 39 2 35.6
23:45 1025 30.27 854 25.22 15.9 60.6 39 1.9 35.5
23:50 1025 30.27 854 25.22 16 60.8 38 1.9 35.4
23:55 1025 30.27 854 25.22 16.1 60.9 38 1.9 35.4
24:00 1025 30.27 854 25.22 16 60.9 38 2 35.6